createdAt,value
2022-12-17T00:01:04.554Z,9.82
2022-12-17T00:03:49.787Z,8.80
2022-12-17T00:06:35.008Z,9.93
2022-12-17T00:09:21.345Z,9.57
2022-12-17T00:14:51.324Z,8.75
2022-12-17T00:17:37.018Z,9.30
2022-12-17T00:20:22.044Z,9.65
2022-12-17T00:23:07.251Z,11.38
2022-12-17T00:25:52.568Z,13.32
2022-12-17T00:28:38.900Z,10.48
2022-12-17T00:34:09.342Z,10.13
2022-12-17T00:36:55.479Z,9.65
2022-12-17T00:39:40.647Z,9.52
2022-12-17T00:42:25.582Z,8.93
2022-12-17T00:45:10.628Z,8.55
2022-12-17T00:47:55.821Z,8.65
2022-12-17T00:50:42.000Z,8.82
2022-12-17T00:53:29.824Z,9.00
2022-12-17T00:56:15.019Z,8.82
2022-12-17T00:59:00.040Z,8.52
2022-12-17T01:01:45.396Z,8.85
2022-12-17T01:04:30.257Z,9.13
2022-12-17T01:07:15.428Z,8.52
2022-12-17T01:10:00.335Z,8.93
2022-12-17T01:12:45.369Z,9.27
2022-12-17T01:15:30.297Z,8.95
2022-12-17T01:18:15.274Z,8.13
2022-12-17T01:21:00.414Z,9.00
2022-12-17T01:23:50.824Z,7.30
2022-12-17T01:26:35.955Z,9.02
2022-12-17T01:29:20.890Z,8.43
2022-12-17T01:32:05.782Z,8.68
2022-12-17T01:34:50.617Z,7.78
2022-12-17T01:37:35.766Z,9.20
2022-12-17T01:40:34.724Z,9.38
2022-12-17T01:43:19.822Z,8.63
2022-12-17T01:46:06.725Z,7.95
2022-12-17T01:49:11.812Z,8.93
2022-12-17T01:51:57.768Z,9.13
2022-12-17T01:54:42.520Z,10.13
2022-12-17T01:57:29.530Z,8.85
2022-12-17T02:00:23.756Z,8.40
2022-12-17T02:03:09.082Z,8.88
2022-12-17T02:06:00.629Z,8.60
2022-12-17T02:08:56.815Z,8.13
2022-12-17T02:11:51.588Z,9.13
2022-12-17T02:14:49.854Z,8.43
2022-12-17T02:17:37.307Z,8.98
2022-12-17T02:20:31.395Z,8.60
2022-12-17T02:23:28.223Z,7.97
2022-12-17T02:28:59.896Z,8.30
2022-12-17T02:31:46.068Z,7.40
2022-12-17T02:37:16.585Z,8.45
2022-12-17T02:40:01.876Z,9.43
2022-12-17T02:42:48.071Z,8.75
2022-12-17T02:45:34.533Z,7.88
2022-12-17T02:48:20.390Z,7.80
2022-12-17T02:51:05.621Z,7.93
2022-12-17T02:53:51.873Z,7.50
2022-12-17T02:59:22.174Z,8.23
2022-12-17T03:02:08.507Z,7.95
2022-12-17T03:04:53.666Z,8.57
2022-12-17T03:07:38.604Z,9.63
2022-12-17T03:10:23.811Z,8.90
2022-12-17T03:13:09.079Z,8.68
2022-12-17T03:15:54.107Z,8.93
2022-12-17T03:18:39.209Z,7.45
2022-12-17T03:21:24.342Z,7.28
2022-12-17T03:24:09.394Z,8.45
2022-12-17T03:26:54.205Z,6.82
2022-12-17T03:29:40.254Z,8.82
2022-12-17T03:32:25.432Z,7.75
2022-12-17T03:35:10.308Z,7.15
2022-12-17T03:37:56.620Z,8.93
2022-12-17T03:43:27.171Z,9.25
2022-12-17T03:46:12.713Z,9.80
2022-12-17T03:48:57.912Z,9.70
2022-12-17T03:51:42.969Z,10.88
2022-12-17T03:54:27.729Z,11.38
2022-12-17T03:57:16.073Z,11.45
2022-12-17T04:00:01.697Z,11.90
2022-12-17T04:02:46.576Z,12.10
2022-12-17T04:05:32.006Z,13.05
2022-12-17T04:08:16.911Z,11.18
2022-12-17T04:11:01.951Z,13.00
2022-12-17T04:13:47.592Z,11.90
2022-12-17T04:16:33.048Z,12.43
2022-12-17T04:19:18.216Z,13.52
2022-12-17T04:22:03.338Z,12.65
2022-12-17T04:24:48.569Z,12.68
2022-12-17T04:27:33.534Z,11.73
2022-12-17T04:30:18.650Z,13.93
2022-12-17T04:33:03.683Z,13.98
2022-12-17T04:35:48.962Z,14.82
2022-12-17T04:38:34.187Z,13.07
2022-12-17T04:41:18.961Z,14.43
2022-12-17T04:44:04.014Z,13.88
2022-12-17T04:46:52.129Z,14.82
2022-12-17T04:49:37.024Z,13.50
2022-12-17T04:52:22.307Z,14.07
2022-12-17T04:55:07.190Z,9.70
2022-12-17T04:57:52.363Z,14.60
2022-12-17T05:00:37.187Z,13.75
2022-12-17T05:03:26.023Z,15.52
2022-12-17T05:06:11.181Z,14.85
2022-12-17T05:08:56.291Z,13.30
2022-12-17T05:11:41.134Z,14.10
2022-12-17T05:14:25.941Z,15.02
2022-12-17T05:17:11.227Z,14.88
2022-12-17T05:19:56.425Z,14.68
2022-12-17T05:22:41.293Z,15.23
2022-12-17T05:25:26.378Z,16.33
2022-12-17T05:28:11.279Z,15.73
2022-12-17T05:30:56.660Z,15.48
2022-12-17T05:33:41.859Z,17.20
2022-12-17T05:36:27.007Z,15.77
2022-12-17T05:39:11.993Z,11.52
2022-12-17T05:41:57.086Z,16.55
2022-12-17T05:44:42.340Z,16.00
2022-12-17T05:47:27.596Z,12.95
2022-12-17T05:50:12.864Z,14.13
2022-12-17T05:52:57.707Z,17.42
2022-12-17T05:55:42.923Z,17.83
2022-12-17T05:58:29.326Z,15.45
2022-12-17T06:03:59.745Z,17.45
2022-12-17T06:06:44.563Z,14.45
2022-12-17T06:09:29.689Z,16.63
2022-12-17T06:12:34.862Z,16.70
2022-12-17T06:15:19.692Z,17.55
2022-12-17T06:18:16.449Z,17.45
2022-12-17T06:21:02.161Z,18.88
2022-12-17T06:23:47.141Z,20.60
2022-12-17T06:26:32.072Z,19.20
2022-12-17T06:29:16.963Z,19.23
2022-12-17T06:32:02.142Z,20.38
2022-12-17T06:34:47.387Z,21.33
2022-12-17T06:37:32.285Z,18.45
2022-12-17T06:40:17.464Z,19.90
2022-12-17T06:43:10.701Z,20.55
2022-12-17T06:45:55.690Z,20.17
2022-12-17T06:48:40.649Z,19.13
2022-12-17T06:51:25.920Z,18.50
2022-12-17T06:54:10.924Z,16.90
2022-12-17T06:56:56.052Z,19.58
2022-12-17T06:59:41.182Z,20.38
2022-12-17T07:02:27.947Z,20.38
2022-12-17T07:05:13.043Z,20.25
2022-12-17T07:07:58.147Z,19.38
2022-12-17T07:10:43.216Z,18.42
2022-12-17T07:13:28.323Z,19.35
2022-12-17T07:16:13.736Z,19.40
2022-12-17T07:18:59.017Z,19.73
2022-12-17T07:21:44.129Z,14.98
2022-12-17T07:24:29.153Z,18.65
2022-12-17T07:27:14.141Z,18.48
2022-12-17T07:29:59.326Z,15.45
2022-12-17T07:32:44.499Z,19.45
2022-12-17T07:35:29.360Z,17.60
2022-12-17T07:38:18.674Z,16.95
2022-12-17T07:41:03.761Z,18.27
2022-12-17T07:43:52.971Z,19.30
2022-12-17T07:46:38.399Z,19.35
2022-12-17T07:49:25.939Z,18.42
2022-12-17T07:52:13.501Z,16.65
2022-12-17T07:54:58.875Z,17.45
2022-12-17T07:57:46.793Z,17.07
2022-12-17T08:00:31.944Z,18.15
2022-12-17T08:03:17.282Z,17.20
2022-12-17T08:06:02.439Z,16.73
2022-12-17T08:08:47.743Z,17.30
2022-12-17T08:11:39.340Z,17.05
2022-12-17T08:14:24.303Z,15.15
2022-12-17T08:17:09.468Z,15.70
2022-12-17T08:19:55.214Z,14.95
2022-12-17T08:22:40.338Z,14.63
2022-12-17T08:25:25.859Z,14.10
2022-12-17T08:28:33.817Z,13.32
2022-12-17T08:31:19.701Z,13.25
2022-12-17T08:34:07.894Z,12.83
2022-12-17T08:36:53.569Z,14.32
2022-12-17T08:39:38.477Z,15.00
2022-12-17T08:42:23.365Z,12.68
2022-12-17T08:45:08.441Z,14.57
2022-12-17T08:47:53.241Z,15.02
2022-12-17T08:50:38.589Z,15.55
2022-12-17T08:53:23.749Z,15.65
2022-12-17T08:56:09.027Z,14.43
2022-12-17T08:58:58.983Z,16.00
2022-12-17T09:01:44.470Z,14.48
2022-12-17T09:04:29.826Z,13.82
2022-12-17T09:07:22.159Z,14.70
2022-12-17T09:10:07.103Z,14.90
2022-12-17T09:12:53.724Z,14.63
2022-12-17T09:15:43.420Z,13.52
2022-12-17T09:18:28.331Z,15.75
2022-12-17T09:21:14.026Z,13.55
2022-12-17T09:23:59.815Z,11.73
2022-12-17T09:26:44.915Z,14.80
2022-12-17T09:29:29.781Z,14.70
2022-12-17T09:32:14.940Z,14.70
2022-12-17T09:35:00.100Z,13.63
2022-12-17T09:37:45.072Z,13.88
2022-12-17T09:40:34.800Z,13.57
2022-12-17T09:43:24.395Z,15.45
2022-12-17T09:46:16.476Z,13.38
2022-12-17T09:49:06.498Z,11.93
2022-12-17T09:51:52.829Z,15.13
2022-12-17T09:57:34.455Z,14.82
2022-12-17T10:00:22.248Z,14.77
2022-12-17T10:03:07.358Z,13.98
2022-12-17T10:05:53.557Z,13.48
2022-12-17T10:08:41.913Z,13.48
2022-12-17T10:11:45.960Z,16.40
2022-12-17T10:14:35.692Z,13.75
2022-12-17T10:17:21.247Z,15.00
2022-12-17T10:20:12.490Z,16.42
2022-12-17T10:23:09.173Z,15.80
2022-12-17T10:25:54.501Z,16.45
2022-12-17T10:28:40.863Z,14.30
2022-12-17T10:31:29.988Z,13.57
2022-12-17T10:34:15.953Z,14.73
2022-12-17T10:37:04.867Z,15.13
2022-12-17T10:39:49.835Z,11.80
2022-12-17T10:43:01.337Z,16.88
2022-12-17T10:45:47.769Z,16.40
2022-12-17T10:48:43.061Z,17.98
2022-12-17T10:51:54.550Z,18.10
2022-12-17T10:54:48.973Z,17.77
2022-12-17T10:57:53.163Z,13.70
2022-12-17T11:00:52.016Z,16.92
2022-12-17T11:03:44.862Z,16.02
2022-12-17T11:06:31.746Z,16.08
2022-12-17T11:09:18.899Z,17.60
2022-12-17T11:12:07.487Z,15.45
2022-12-17T11:14:58.849Z,16.05
2022-12-17T11:17:44.589Z,16.48
2022-12-17T11:20:44.553Z,11.55
2022-12-17T11:23:37.138Z,15.23
2022-12-17T11:26:27.824Z,15.02
2022-12-17T11:29:13.057Z,14.60
2022-12-17T11:32:10.387Z,14.15
2022-12-17T11:35:14.518Z,13.60
2022-12-17T11:37:59.660Z,15.23
2022-12-17T11:40:57.040Z,15.70
2022-12-17T11:43:52.930Z,15.85
2022-12-17T11:46:57.211Z,15.97
2022-12-17T11:49:42.284Z,13.30
2022-12-17T11:52:36.517Z,13.65
2022-12-17T11:55:23.415Z,14.93
2022-12-17T11:58:14.683Z,14.35
2022-12-17T12:01:25.843Z,14.85
2022-12-17T12:04:10.957Z,14.32
2022-12-17T12:07:08.423Z,15.80
2022-12-17T12:09:58.533Z,13.93
2022-12-17T12:12:52.459Z,12.70
2022-12-17T12:15:37.343Z,13.80
2022-12-17T12:18:25.457Z,14.05
2022-12-17T12:21:29.384Z,12.45
2022-12-17T12:24:14.540Z,13.48
2022-12-17T12:27:06.898Z,12.93
2022-12-17T12:30:03.637Z,12.27
2022-12-17T12:35:38.404Z,13.27
2022-12-17T12:38:23.667Z,13.43
2022-12-17T12:41:21.524Z,12.20
2022-12-17T12:44:10.617Z,13.18
2022-12-17T12:46:58.366Z,6.70
2022-12-17T12:49:49.364Z,13.05
2022-12-17T12:52:42.668Z,12.02
2022-12-17T12:55:30.656Z,10.85
2022-12-17T12:58:20.616Z,13.90
2022-12-17T13:01:11.290Z,12.52
2022-12-17T13:04:08.916Z,13.75
2022-12-17T13:06:47.396Z,13.05
2022-12-17T13:09:30.686Z,12.60
2022-12-17T13:12:03.280Z,13.73
2022-12-17T13:14:47.983Z,14.40
2022-12-17T13:17:17.422Z,15.48
2022-12-17T13:19:45.960Z,14.85
2022-12-17T13:22:21.688Z,14.73
2022-12-17T13:25:13.490Z,12.80
2022-12-17T13:27:43.171Z,15.48
2022-12-17T13:30:24.320Z,15.15
2022-12-17T13:32:55.603Z,15.90
2022-12-17T13:35:45.355Z,13.35
2022-12-17T13:38:33.043Z,15.07
2022-12-17T13:41:11.955Z,16.60
2022-12-17T13:43:41.622Z,13.95
2022-12-17T13:46:16.925Z,15.25
2022-12-17T13:48:43.557Z,15.13
2022-12-17T13:51:20.495Z,14.65
2022-12-17T13:53:54.198Z,16.85
2022-12-17T13:56:28.465Z,13.07
2022-12-17T13:58:56.108Z,16.02
2022-12-17T14:01:23.053Z,16.98
2022-12-17T14:04:07.511Z,15.82
2022-12-17T14:06:36.542Z,17.35
2022-12-17T14:09:04.764Z,15.85
2022-12-17T14:11:50.370Z,17.50
2022-12-17T14:14:29.708Z,18.30
2022-12-17T14:16:57.939Z,17.50
2022-12-17T14:19:25.824Z,18.85
2022-12-17T14:21:55.294Z,17.90
2022-12-17T14:24:29.821Z,18.88
2022-12-17T14:27:00.222Z,17.58
2022-12-17T14:29:28.955Z,18.65
2022-12-17T14:31:56.826Z,18.75
2022-12-17T14:34:23.381Z,18.45
2022-12-17T14:36:57.718Z,18.27
2022-12-17T14:39:33.492Z,19.52
2022-12-17T14:42:25.862Z,16.80
2022-12-17T14:45:02.743Z,18.80
2022-12-17T14:47:33.941Z,18.40
2022-12-17T14:50:08.562Z,18.83
2022-12-17T14:52:39.931Z,18.98
2022-12-17T14:55:24.978Z,18.95
2022-12-17T14:57:53.548Z,14.90
2022-12-17T15:00:22.427Z,19.33
2022-12-17T15:02:55.654Z,19.90
2022-12-17T15:05:25.183Z,20.00
2022-12-17T15:07:58.216Z,21.02
2022-12-17T15:10:25.921Z,20.33
2022-12-17T15:12:53.440Z,19.77
2022-12-17T15:15:21.817Z,20.42
2022-12-17T15:17:48.858Z,20.20
2022-12-17T15:20:20.397Z,19.20
2022-12-17T15:22:49.866Z,19.88
2022-12-17T15:25:17.830Z,20.00
2022-12-17T15:27:44.545Z,19.80
2022-12-17T15:30:15.395Z,19.15
2022-12-17T15:32:48.596Z,21.70
2022-12-17T15:35:17.643Z,21.02
2022-12-17T15:37:44.127Z,19.90
2022-12-17T15:40:12.030Z,20.42
2022-12-17T15:43:03.107Z,22.75
2022-12-17T15:45:35.489Z,22.85
2022-12-17T15:48:01.886Z,22.90
2022-12-17T15:50:29.948Z,16.27
2022-12-17T15:52:57.517Z,21.13
2022-12-17T15:55:24.758Z,23.63
2022-12-17T15:57:54.153Z,22.20
2022-12-17T16:00:20.719Z,22.17
2022-12-17T16:02:48.706Z,23.10
2022-12-17T16:05:15.455Z,23.88
2022-12-17T16:07:43.908Z,23.42
2022-12-17T16:10:11.390Z,23.30
2022-12-17T16:12:39.068Z,23.27
2022-12-17T16:15:06.061Z,16.77
2022-12-17T16:17:33.918Z,22.85
2022-12-17T16:20:00.965Z,23.98
2022-12-17T16:22:29.470Z,23.58
2022-12-17T16:24:55.958Z,20.40
2022-12-17T16:27:22.434Z,24.30
2022-12-17T16:29:50.532Z,24.40
2022-12-17T16:32:17.984Z,25.55
2022-12-17T16:34:45.151Z,25.05
2022-12-17T16:37:11.673Z,25.92
2022-12-17T16:39:38.130Z,27.23
2022-12-17T16:42:04.509Z,24.23
2022-12-17T16:44:30.946Z,24.05
2022-12-17T16:46:57.485Z,26.13
2022-12-17T16:49:26.268Z,26.10
2022-12-17T16:51:53.534Z,26.60
2022-12-17T16:54:22.365Z,27.95
2022-12-17T16:56:50.306Z,27.05
2022-12-17T16:59:17.060Z,29.50
2022-12-17T17:01:44.913Z,26.13
2022-12-17T17:04:11.879Z,28.45
2022-12-17T17:06:42.100Z,27.35
2022-12-17T17:09:09.779Z,26.40
2022-12-17T17:11:36.337Z,28.27
2022-12-17T17:14:07.149Z,27.27
2022-12-17T17:16:37.043Z,28.50
2022-12-17T17:19:04.582Z,27.90
2022-12-17T17:21:32.432Z,26.75
2022-12-17T17:23:59.987Z,28.05
2022-12-17T17:26:27.460Z,28.25
2022-12-17T17:28:53.810Z,28.13
2022-12-17T17:31:21.774Z,28.02
2022-12-17T17:33:48.982Z,27.52
2022-12-17T17:36:20.094Z,28.38
2022-12-17T17:38:49.065Z,29.40
2022-12-17T17:41:17.470Z,27.98
2022-12-17T17:43:44.269Z,29.48
2022-12-17T17:46:15.068Z,29.10
2022-12-17T17:48:42.053Z,28.90
2022-12-17T17:51:11.513Z,30.35
2022-12-17T17:53:37.920Z,32.53
2022-12-17T17:56:05.244Z,29.85
2022-12-17T17:58:32.265Z,30.23
2022-12-17T18:00:58.755Z,32.78
2022-12-17T18:03:27.390Z,30.05
2022-12-17T18:05:53.942Z,30.25
2022-12-17T18:08:20.294Z,30.05
2022-12-17T18:10:56.986Z,32.92
2022-12-17T18:13:41.846Z,32.08
2022-12-17T18:16:08.568Z,33.05
2022-12-17T18:18:35.397Z,30.50
2022-12-17T18:21:09.235Z,34.47
2022-12-17T18:23:35.867Z,31.45
2022-12-17T18:26:13.963Z,31.83
2022-12-17T18:28:42.460Z,33.83
2022-12-17T18:31:19.198Z,31.13
2022-12-17T18:33:47.767Z,30.55
2022-12-17T18:36:15.962Z,33.13
2022-12-17T18:38:42.630Z,33.42
2022-12-17T18:41:35.075Z,32.30
2022-12-17T18:44:04.802Z,31.95
2022-12-17T18:46:32.893Z,31.48
2022-12-17T18:49:00.711Z,31.10
2022-12-17T18:51:27.715Z,31.77
2022-12-17T18:53:58.612Z,31.95
2022-12-17T18:56:52.459Z,31.15
2022-12-17T18:59:16.814Z,30.98
2022-12-17T19:01:43.643Z,31.73
2022-12-17T19:04:12.194Z,30.33
2022-12-17T19:06:38.724Z,31.25
2022-12-17T19:09:06.063Z,34.00
2022-12-17T19:11:33.576Z,32.05
2022-12-17T19:13:59.935Z,32.05
2022-12-17T19:16:28.055Z,31.73
2022-12-17T19:19:02.918Z,33.50
2022-12-17T19:21:30.354Z,32.53
2022-12-17T19:24:00.946Z,31.38
2022-12-17T19:26:27.625Z,32.95
2022-12-17T19:28:55.168Z,29.80
2022-12-17T19:31:22.496Z,32.35
2022-12-17T19:33:49.017Z,29.95
2022-12-17T19:36:17.329Z,32.25
2022-12-17T19:38:46.631Z,32.47
2022-12-17T19:41:17.513Z,31.15
2022-12-17T19:43:44.782Z,31.65
2022-12-17T19:46:12.724Z,25.15
2022-12-17T19:48:45.003Z,30.65
2022-12-17T19:51:20.995Z,30.98
2022-12-17T19:53:48.886Z,30.48
2022-12-17T19:56:15.301Z,30.20
2022-12-17T19:58:42.118Z,30.63
2022-12-17T20:01:09.781Z,29.42
2022-12-17T20:03:36.697Z,29.73
2022-12-17T20:06:03.453Z,21.25
2022-12-17T20:08:30.511Z,28.70
2022-12-17T20:10:57.157Z,28.85
2022-12-17T20:13:25.927Z,28.58
2022-12-17T20:16:05.432Z,28.70
2022-12-17T20:18:34.845Z,28.80
2022-12-17T20:21:02.363Z,29.80
2022-12-17T20:23:28.705Z,30.63
2022-12-17T20:26:24.783Z,30.13
2022-12-17T20:28:54.820Z,29.85
2022-12-17T20:31:24.343Z,29.75
2022-12-17T20:33:50.833Z,24.92
2022-12-17T20:36:18.335Z,26.60
2022-12-17T20:38:45.156Z,24.05
2022-12-17T20:41:12.544Z,24.92
2022-12-17T20:43:41.661Z,25.98
2022-12-17T20:46:09.603Z,22.25
2022-12-17T20:48:37.445Z,22.88
2022-12-17T20:51:07.547Z,25.58
2022-12-17T20:53:35.702Z,28.45
2022-12-17T20:56:07.787Z,27.83
2022-12-17T20:58:34.426Z,26.10
2022-12-17T21:01:18.721Z,24.98
2022-12-17T21:03:46.184Z,25.48
2022-12-17T21:06:19.437Z,26.50
2022-12-17T21:08:50.236Z,28.20
2022-12-17T21:11:25.146Z,27.27
2022-12-17T21:13:53.884Z,29.02
2022-12-17T21:16:25.618Z,28.58
2022-12-17T21:18:53.282Z,23.67
2022-12-17T21:21:25.371Z,28.65
2022-12-17T21:23:53.349Z,27.27
2022-12-17T21:26:22.131Z,27.35
2022-12-17T21:28:52.522Z,23.27
2022-12-17T21:31:24.141Z,27.67
2022-12-17T21:33:54.359Z,29.48
2022-12-17T21:36:22.546Z,28.50
2022-12-17T21:38:49.687Z,27.63
2022-12-17T21:41:21.849Z,28.48
2022-12-17T21:44:02.699Z,29.13
2022-12-17T21:46:29.524Z,28.25
2022-12-17T21:48:57.184Z,27.20
2022-12-17T21:51:23.943Z,28.10
2022-12-17T21:53:58.185Z,27.33
2022-12-17T21:56:25.144Z,27.08
2022-12-17T21:58:57.212Z,27.33
2022-12-17T22:01:27.411Z,30.00
2022-12-17T22:03:55.462Z,23.95
2022-12-17T22:06:26.039Z,25.77
2022-12-17T22:09:06.936Z,25.60
2022-12-17T22:11:45.386Z,26.27
2022-12-17T22:14:20.318Z,27.10
2022-12-17T22:16:52.387Z,31.77
2022-12-17T22:19:22.207Z,26.30
2022-12-17T22:21:49.829Z,21.88
2022-12-17T22:24:17.409Z,28.58
2022-12-17T22:26:45.217Z,24.55
2022-12-17T22:29:34.687Z,24.17
2022-12-17T22:32:19.897Z,23.50
2022-12-17T22:36:13.070Z,24.20
2022-12-17T22:40:34.341Z,22.48
2022-12-17T22:44:42.954Z,20.85
2022-12-17T22:44:44.171Z,25.15
2022-12-17T22:46:19.198Z,20.38
2022-12-17T22:48:45.869Z,24.48
2022-12-17T22:51:14.549Z,24.48
2022-12-17T22:53:48.368Z,19.52
2022-12-17T22:56:27.771Z,22.88
2022-12-17T22:59:02.509Z,24.58
2022-12-17T23:01:32.598Z,23.25
2022-12-17T23:03:59.787Z,24.02
2022-12-17T23:06:30.321Z,23.25
2022-12-17T23:08:59.294Z,22.95
2022-12-17T23:11:27.698Z,25.48
2022-12-17T23:13:55.175Z,23.48
2022-12-17T23:16:21.750Z,27.63
2022-12-17T23:18:50.760Z,21.23
2022-12-17T23:21:20.306Z,23.52
2022-12-17T23:23:48.080Z,22.67
2022-12-17T23:26:19.335Z,22.77
2022-12-17T23:28:50.643Z,21.00
2022-12-17T23:31:18.639Z,19.90
2022-12-17T23:33:46.598Z,23.73
2022-12-17T23:36:16.052Z,26.75
2022-12-17T23:38:43.871Z,24.58
2022-12-17T23:41:17.608Z,25.73
2022-12-17T23:43:47.452Z,22.85
2022-12-17T23:46:14.671Z,21.90
2022-12-17T23:48:45.510Z,26.92
2022-12-17T23:51:15.725Z,23.40
2022-12-17T23:53:43.833Z,25.27
2022-12-17T23:56:21.248Z,26.08
2022-12-17T23:58:52.220Z,16.98
